createdAt,value
2019-02-06T00:00:28.488Z,96344.02
2019-02-06T00:05:29.865Z,96349.16
2019-02-06T00:10:31.233Z,96347.95
2019-02-06T00:15:32.611Z,96344.86
2019-02-06T00:20:33.994Z,96339.89
2019-02-06T00:25:35.320Z,96337.80
2019-02-06T00:30:37.561Z,96340.95
2019-02-06T00:35:38.961Z,96340.36
2019-02-06T00:40:41.019Z,96337.44
2019-02-06T00:45:42.356Z,96334.81
2019-02-06T00:50:43.723Z,96339.45
2019-02-06T00:55:45.160Z,96339.17
2019-02-06T01:00:46.577Z,96338.92
2019-02-06T01:05:48.687Z,96335.41
2019-02-06T01:10:50.046Z,96331.75
2019-02-06T01:15:51.437Z,96329.86
2019-02-06T01:20:52.812Z,96327.77
2019-02-06T01:25:54.206Z,96330.94
2019-02-06T01:30:55.545Z,96332.67
2019-02-06T01:35:57.024Z,96329.71
2019-02-06T01:40:58.379Z,96328.27
2019-02-06T01:45:59.751Z,96326.63
2019-02-06T01:51:01.100Z,96316.73
2019-02-06T01:56:02.431Z,96315.30
2019-02-06T02:01:03.902Z,96306.36
2019-02-06T02:06:05.321Z,96302.31
2019-02-06T02:11:06.661Z,96307.73
2019-02-06T02:16:08.017Z,96294.38
2019-02-06T02:21:09.414Z,96293.19
2019-02-06T02:26:11.560Z,96293.77
2019-02-06T02:31:12.950Z,96290.48
2019-02-06T02:36:16.474Z,96288.45
2019-02-06T02:41:16.523Z,96281.91
2019-02-06T02:46:17.939Z,96275.92
2019-02-06T02:51:19.419Z,96280.17
2019-02-06T02:56:20.797Z,96277.37
2019-02-06T03:01:28.991Z,96268.59
2019-02-06T03:06:30.527Z,96274.55
2019-02-06T03:11:31.836Z,96275.28
2019-02-06T03:16:41.111Z,96283.80
2019-02-06T03:21:47.600Z,96276.75
2019-02-06T03:26:48.925Z,96275.95
2019-02-06T03:31:50.286Z,96269.89
2019-02-06T03:36:51.665Z,96269.62
2019-02-06T03:41:52.999Z,96268.50
2019-02-06T03:46:54.397Z,96265.71
2019-02-06T03:51:55.780Z,96267.89
2019-02-06T03:56:57.130Z,96264.36
2019-02-06T04:01:58.513Z,96266.16
2019-02-06T04:07:01.071Z,96263.64
2019-02-06T04:12:02.959Z,96263.36
2019-02-06T04:17:08.469Z,96259.86
2019-02-06T04:22:09.829Z,96263.88
2019-02-06T04:27:11.228Z,96266.36
2019-02-06T04:32:12.564Z,96271.02
2019-02-06T04:37:14.014Z,96263.80
2019-02-06T04:42:15.372Z,96275.19
2019-02-06T04:47:17.487Z,96283.06
2019-02-06T04:52:18.945Z,96292.12
2019-02-06T04:57:20.387Z,96282.39
2019-02-06T05:02:22.538Z,96279.03
2019-02-06T05:07:24.699Z,96289.19
2019-02-06T05:12:26.049Z,96291.69
2019-02-06T05:17:27.593Z,96290.22
2019-02-06T05:22:29.669Z,96295.84
2019-02-06T05:27:31.828Z,96291.05
2019-02-06T05:32:33.958Z,96289.64
2019-02-06T05:37:35.330Z,96284.73
2019-02-06T05:42:36.787Z,96287.36
2019-02-06T05:47:38.325Z,96287.16
2019-02-06T05:52:39.744Z,96287.08
2019-02-06T05:57:41.106Z,96288.59
2019-02-06T06:02:42.477Z,96285.27
2019-02-06T06:07:45.501Z,96289.10
2019-02-06T06:12:46.103Z,96294.47
2019-02-06T06:17:47.478Z,96288.30
2019-02-06T06:22:48.908Z,96283.39
2019-02-06T06:27:50.255Z,96290.06
2019-02-06T06:32:51.608Z,96284.28
2019-02-06T06:37:59.799Z,96291.73
2019-02-06T06:42:54.613Z,96295.93
2019-02-06T06:47:55.965Z,96296.80
2019-02-06T06:52:58.371Z,96308.45
2019-02-06T06:57:59.840Z,96299.73
2019-02-06T07:03:01.124Z,96293.83
2019-02-06T07:08:09.595Z,96303.81
2019-02-06T07:13:03.923Z,96298.48
2019-02-06T07:18:05.251Z,96304.78
2019-02-06T07:23:07.331Z,96298.39
2019-02-06T07:28:09.408Z,96301.35
2019-02-06T07:33:11.596Z,96303.65
2019-02-06T07:38:23.579Z,96304.80
2019-02-06T07:43:14.351Z,96304.36
2019-02-06T07:48:18.935Z,96313.14
2019-02-06T07:53:27.844Z,96312.44
2019-02-06T07:58:29.163Z,96309.59
2019-02-06T08:03:30.662Z,96321.70
2019-02-06T08:08:36.161Z,96321.98
2019-02-06T08:13:33.252Z,96317.64
2019-02-06T08:18:34.582Z,96318.30
2019-02-06T08:23:35.907Z,96314.88
2019-02-06T08:28:37.231Z,96311.72
2019-02-06T08:33:38.566Z,96305.03
2019-02-06T08:38:47.421Z,96298.38
2019-02-06T08:43:41.256Z,96292.02
2019-02-06T08:48:42.572Z,96301.58
2019-02-06T08:53:43.889Z,96303.95
2019-02-06T08:58:45.235Z,96306.59
2019-02-06T09:03:46.559Z,96302.19
2019-02-06T09:08:58.979Z,96299.17
2019-02-06T09:13:50.031Z,96292.38
2019-02-06T09:18:52.110Z,96292.79
2019-02-06T09:23:53.466Z,96290.77
2019-02-06T09:28:54.813Z,96295.64
2019-02-06T09:33:56.122Z,96296.76
2019-02-06T09:38:57.394Z,96294.22
2019-02-06T09:43:58.686Z,96288.38
2019-02-06T09:49:00.037Z,96280.30
2019-02-06T09:54:01.383Z,96286.23
2019-02-06T09:59:02.744Z,96284.59
2019-02-06T10:04:04.056Z,96285.78
2019-02-06T10:09:05.400Z,96281.19
2019-02-06T10:14:06.753Z,96283.25
2019-02-06T10:19:08.086Z,96277.67
2019-02-06T10:24:10.105Z,96275.78
2019-02-06T10:29:11.387Z,96261.46
2019-02-06T10:34:12.728Z,96256.47
2019-02-06T10:39:14.136Z,96266.20
2019-02-06T10:44:15.510Z,96249.33
2019-02-06T10:49:16.872Z,96241.61
2019-02-06T10:54:18.163Z,96238.32
2019-02-06T10:59:19.517Z,96224.84
2019-02-06T11:04:20.914Z,96225.23
2019-02-06T11:09:22.218Z,96223.03
2019-02-06T11:14:23.551Z,96211.17
2019-02-06T11:19:24.906Z,96210.65
2019-02-06T11:24:26.879Z,96193.16
2019-02-06T11:29:27.561Z,96190.81
2019-02-06T11:34:28.965Z,96179.78
2019-02-06T11:39:30.268Z,96176.44
2019-02-06T11:44:31.628Z,96174.89
2019-02-06T11:49:32.920Z,96177.20
2019-02-06T11:54:34.221Z,96176.25
2019-02-06T11:59:35.560Z,96166.20
2019-02-06T12:04:36.919Z,96155.85
2019-02-06T12:09:38.989Z,96141.72
2019-02-06T12:14:40.392Z,96139.06
2019-02-06T12:19:41.803Z,96135.28
2019-02-06T12:24:43.049Z,96125.12
2019-02-06T12:29:44.393Z,96119.44
2019-02-06T12:34:46.595Z,96114.22
2019-02-06T12:39:47.969Z,96101.47
2019-02-06T12:44:49.295Z,96102.62
2019-02-06T12:49:50.953Z,96098.31
2019-02-06T12:54:53.033Z,96099.91
2019-02-06T12:59:54.349Z,96092.52
2019-02-06T13:04:55.695Z,96099.27
2019-02-06T13:09:57.013Z,96091.89
2019-02-06T13:14:58.348Z,96083.99
2019-02-06T13:19:59.660Z,96078.13
2019-02-06T13:25:00.993Z,96067.59
2019-02-06T13:30:02.321Z,96062.46
2019-02-06T13:35:03.633Z,96051.64
2019-02-06T13:40:06.674Z,96056.05
2019-02-06T13:45:08.822Z,96046.48
2019-02-06T13:50:21.293Z,96039.20
2019-02-06T13:55:14.595Z,96027.51
2019-02-06T14:00:26.936Z,96029.27
2019-02-06T14:05:28.227Z,96018.58
2019-02-06T14:10:29.568Z,96006.47
2019-02-06T14:15:32.463Z,96001.95
2019-02-06T14:20:33.812Z,95995.23
2019-02-06T14:25:46.885Z,95985.52
2019-02-06T14:37:03.363Z,95981.32
2019-02-06T14:42:13.451Z,95973.22
2019-02-06T14:47:36.571Z,95964.14
2019-02-06T14:59:07.131Z,95961.12
2019-02-06T15:10:14.617Z,95954.44
2019-02-06T15:21:13.511Z,95946.46
2019-02-06T15:26:21.857Z,95936.00
2019-02-06T15:31:38.951Z,95929.22
2019-02-06T15:42:43.308Z,95923.27
2019-02-06T15:48:18.019Z,95913.33
2019-02-06T15:53:23.624Z,95907.58
2019-02-06T15:58:32.561Z,95909.30
2019-02-06T16:09:21.988Z,95900.47
2019-02-06T16:14:47.203Z,95888.19
2019-02-06T16:20:15.533Z,95888.13
2019-02-06T16:25:24.507Z,95884.32
2019-02-06T16:30:40.705Z,95882.62
2019-02-06T16:41:40.628Z,95878.95
2019-02-06T16:52:45.085Z,95869.98
2019-02-06T17:09:39.470Z,95859.08
2019-02-06T17:14:44.740Z,95862.84
2019-02-06T17:31:43.514Z,95859.44
2019-02-06T17:36:47.955Z,95855.02
2019-02-06T17:48:36.738Z,95847.02
2019-02-06T17:53:50.217Z,95852.59
2019-02-06T17:58:51.564Z,95857.66
2019-02-06T18:03:55.503Z,95842.95
2019-02-06T18:08:57.954Z,95837.20
2019-02-06T18:14:00.538Z,95825.33
2019-02-06T18:19:02.119Z,95816.99
2019-02-06T18:24:05.513Z,95814.69
2019-02-06T18:29:07.651Z,95816.80
2019-02-06T18:34:09.036Z,95820.83
2019-02-06T18:39:10.742Z,95813.86
2019-02-06T18:44:12.355Z,95803.09
2019-02-06T18:49:13.716Z,95807.09
2019-02-06T18:54:15.082Z,95788.86
2019-02-06T18:59:17.643Z,95792.70
2019-02-06T19:04:19.044Z,95790.05
2019-02-06T19:09:20.402Z,95787.66
2019-02-06T19:14:22.084Z,95773.59
2019-02-06T19:19:25.474Z,95776.84
2019-02-06T19:24:24.736Z,95774.64
2019-02-06T19:29:26.793Z,95762.22
2019-02-06T19:34:28.125Z,95761.52
2019-02-06T19:39:29.484Z,95762.38
2019-02-06T19:44:30.925Z,95758.25
2019-02-06T19:49:32.257Z,95748.50
2019-02-06T19:54:33.618Z,95743.52
2019-02-06T19:59:34.973Z,95741.19
2019-02-06T20:04:36.283Z,95738.13
2019-02-06T20:09:38.189Z,95739.69
2019-02-06T20:14:43.261Z,95742.41
2019-02-06T20:19:45.983Z,95734.37
2019-02-06T20:24:48.489Z,95725.14
2019-02-06T20:29:50.698Z,95735.86
2019-02-06T20:34:56.613Z,95732.05
2019-02-06T20:39:58.783Z,95724.55
2019-02-06T20:45:01.240Z,95717.10
2019-02-06T20:50:02.582Z,95713.27
2019-02-06T20:55:04.671Z,95709.27
2019-02-06T21:00:11.942Z,95697.45
2019-02-06T21:05:13.456Z,95701.00
2019-02-06T21:10:25.278Z,95688.41
2019-02-06T21:15:26.658Z,95679.11
2019-02-06T21:20:28.016Z,95677.27
2019-02-06T21:25:29.449Z,95668.80
2019-02-06T21:30:33.686Z,95667.18
2019-02-06T21:35:35.756Z,95665.94
2019-02-06T21:40:42.764Z,95657.28
2019-02-06T21:45:47.933Z,95657.16
2019-02-06T21:50:50.258Z,95656.61
2019-02-06T22:01:07.013Z,95661.72
2019-02-06T22:06:18.259Z,95655.42
2019-02-06T22:11:22.973Z,95647.05
2019-02-06T22:16:26.373Z,95639.37
2019-02-06T22:21:36.434Z,95636.05
2019-02-06T22:26:49.330Z,95637.52
2019-02-06T22:31:55.423Z,95612.14
2019-02-06T22:37:01.935Z,95604.22
2019-02-06T22:42:18.897Z,95598.22
2019-02-06T22:47:23.251Z,95592.85
2019-02-06T22:52:28.511Z,95593.05
2019-02-06T22:57:33.627Z,95586.58
2019-02-06T23:02:35.624Z,95591.62
2019-02-06T23:12:55.641Z,95587.50
2019-02-06T23:18:03.108Z,95583.63
2019-02-06T23:23:08.373Z,95574.34
2019-02-06T23:28:09.675Z,95572.15
2019-02-06T23:33:11.001Z,95561.97
2019-02-06T23:38:12.340Z,95556.44
2019-02-06T23:43:13.665Z,95561.81
2019-02-06T23:48:15.067Z,95550.07
2019-02-06T23:53:16.432Z,95551.67
2019-02-06T23:58:17.993Z,95546.24
